ADDS METAR Data INFO
IDs: Format: Raw Decoded Include TAF

Data at: 1310 UTC 11 Dec 2017

KMKN 111255Z AUTO 25009KT 10SM CLR 08/M05 A3031 RMK AO2 T00771055
KMKN 111235Z AUTO 00000KT 10SM CLR 06/M06 A3031 RMK AO2 T00601065
KMKN 111215Z AUTO 00000KT 10SM CLR 06/M06 A3030 RMK AO2 T00591065
KMKN 111155Z AUTO 26004KT 10SM CLR 09/M06 A3030 RMK AO2 T00901060 10125 20070
KMKN 111135Z AUTO 00000KT 10SM CLR 07/M06 A3030 RMK AO2 T00701064
KMKN 111115Z AUTO 26006KT 10SM CLR 09/M06 A3030 RMK AO2 T00931058
KMKN 111055Z AUTO 26008KT 10SM CLR 10/M06 A3030 RMK AO2 T01021058
KMKN 111035Z AUTO 25008KT 10SM CLR 10/M06 A3030 RMK AO2 T00971060
KMKN 111015Z AUTO 26007KT 10SM CLR 10/M06 A3031 RMK AO2 T00961061
KMKN 110955Z AUTO 26007KT 10SM CLR 10/M06 A3030 RMK AO2 T01001061
KMKN 110935Z AUTO 26007KT 10SM CLR 10/M06 A3031 RMK AO2 T01011062
KMKN 110915Z AUTO 25010KT 10SM CLR 11/M06 A3031 RMK AO2 T01071063
KMKN 110855Z AUTO 25011KT 10SM CLR 11/M06 A3031 RMK AO2 T01101063
KMKN 110835Z AUTO 25009KT 10SM CLR 11/M07 A3031 RMK AO2 T01121067
KMKN 110815Z AUTO 25012KT 10SM CLR 12/M07 A3031 RMK AO2 T01171067
KMKN 110755Z AUTO 25012KT 10SM CLR 12/M07 A3031 RMK AO2 T01201070
KMKN 110735Z AUTO 25011KT 10SM CLR 12/M07 A3032 RMK AO2 T01221071
KMKN 110715Z AUTO 25010KT 10SM CLR 13/M07 A3032 RMK AO2 T01251070
KMKN 110655Z AUTO 25011KT 10SM CLR 12/M07 A3032 RMK AO2 T01231070
KMKN 110635Z AUTO 24009KT 10SM CLR 12/M07 A3033 RMK AO2 T01201070
KMKN 110615Z AUTO 24009KT 10SM CLR 12/M07 A3034 RMK AO2 T01241071
KMKN 110555Z AUTO 24008KT 10SM CLR 12/M07 A3033 RMK AO2 T01231070 10188 20123 402210001
KMKN 110535Z AUTO 25009KT 10SM CLR 13/M07 A3033 RMK AO2 T01261067
KMKN 110515Z AUTO 25009KT 10SM CLR 13/M06 A3034 RMK AO2 T01281065
KMKN 110455Z AUTO 25009KT 10SM CLR 13/M06 A3034 RMK AO2 T01271065
KMKN 110435Z AUTO 25009KT 10SM CLR 13/M06 A3034 RMK AO2 T01271062
KMKN 110415Z AUTO 25010KT 10SM CLR 13/M06 A3034 RMK AO2 T01281060
KMKN 110355Z AUTO 24008KT 10SM CLR 13/M06 A3034 RMK AO2 T01261060
KMKN 110335Z AUTO 24008KT 10SM CLR 14/M06 A3034 RMK AO2 T01361061
KMKN 110315Z AUTO 24007KT 10SM CLR 14/M06 A3034 RMK AO2 T01391061
KMKN 110255Z AUTO 24008KT 10SM CLR 14/M06 A3034 RMK AO2 T01371058
KMKN 110235Z AUTO 24008KT 10SM CLR 14/M06 A3035 RMK AO2 T01381057
KMKN 110215Z AUTO 23008KT 10SM CLR 14/M06 A3035 RMK AO2 T01401058
KMKN 110155Z AUTO 23008KT 10SM CLR 14/M06 A3035 RMK AO2 T01421060
KMKN 110135Z AUTO 24008KT 10SM CLR 15/M07 A3035 RMK AO2 T01451066
KMKN 110115Z AUTO 24007KT 10SM CLR 14/M07 A3035 RMK AO2 T01441074
KMKN 110055Z AUTO 23006KT 10SM CLR 15/M08 A3035 RMK AO2 T01481077
KMKN 110035Z AUTO 25006KT 10SM CLR 16/M08 A3034 RMK AO2 T01631080
KMKN 110015Z AUTO 26004KT 10SM CLR 17/M08 A3034 RMK AO2 T01701079
KMKN 102355Z AUTO 00000KT 10SM CLR 19/M08 A3034 RMK AO2 T01881076 10221 20185
KMKN 102335Z AUTO 00000KT 10SM CLR 19/M07 A3033 RMK AO2 T01901075
KMKN 102315Z AUTO 00000KT 10SM CLR 20/M07 A3034 RMK AO2 T01971068
KMKN 102255Z AUTO 33003KT 10SM CLR 21/M07 A3034 RMK AO2 T02061068
KMKN 102235Z AUTO 32003KT 10SM CLR 21/M06 A3033 RMK AO2 T02131064
KMKN 102215Z AUTO 29005KT 10SM CLR 22/M06 A3033 RMK AO2 T02161057
KMKN 102155Z AUTO 31004KT 10SM CLR 22/M05 A3034 RMK AO2 T02161055
KMKN 102135Z AUTO 32003KT 10SM CLR 22/M05 A3034 RMK AO2 T02201050
KMKN 102115Z AUTO 32005KT 10SM CLR 22/M05 A3034 RMK AO2 T02171050
KMKN 102055Z AUTO 27004KT 10SM CLR 21/M06 A3034 RMK AO2 T02081058
KMKN 102035Z AUTO 28005KT 10SM CLR 21/M05 A3035 RMK AO2 T02141054
KMKN 102015Z AUTO 30005KT 10SM CLR 21/M06 A3035 RMK AO2 T02141057
KMKN 101955Z AUTO 30004KT 10SM CLR 21/M06 A3036 RMK AO2 T02141057
KMKN 101935Z AUTO 26003KT 10SM CLR 21/M05 A3036 RMK AO2 T02051055
KMKN 101915Z AUTO 32008KT 10SM CLR 21/M05 A3037 RMK AO2 T02051053
KMKN 101855Z AUTO 27003KT 10SM CLR 20/M05 A3038 RMK AO2 T02001049
KMKN 101835Z AUTO 26005KT 10SM CLR 19/M05 A3040 RMK AO2 T01911053
KMKN 101815Z AUTO 28004KT 10SM CLR 19/M05 A3040 RMK AO2 T01901053
KMKN 101755Z AUTO 28007KT 10SM CLR 18/M05 A3042 RMK AO2 T01841054 10184 20001
KMKN 101735Z AUTO 26009KT 10SM CLR 18/M05 A3043 RMK AO2 T01801052
KMKN 101715Z AUTO 27007KT 220V300 10SM CLR 17/M05 A3043 RMK AO2 T01741055
KMKN 101655Z AUTO 27007KT 10SM CLR 17/M05 A3043 RMK AO2 T01681054
KMKN 101635Z AUTO 25008KT 10SM CLR 17/M04 A3044 RMK AO2 T01651042
KMKN 101615Z AUTO 25008KT 10SM CLR 16/M04 A3044 RMK AO2 T01601042
KMKN 101555Z AUTO 27006KT 10SM CLR 15/M04 A3043 RMK AO2 T01501037
KMKN 101535Z AUTO 27006KT 10SM CLR 14/M03 A3043 RMK AO2 T01371034
KMKN 101515Z AUTO 00000KT 10SM CLR 08/M01 A3043 RMK AO2 T00801015
KMKN 101455Z AUTO 00000KT 10SM CLR 04/M02 A3043 RMK AO2 T00441023
KMKN 101435Z AUTO 00000KT 10SM CLR 04/M03 A3043 RMK AO2 T00371034
KMKN 101415Z AUTO 25005KT 10SM CLR 06/M04 A3042 RMK AO2 T00631044
KMKN 101355Z AUTO 00000KT 10SM CLR 04/M05 A3042 RMK AO2 T00421048
KMKN 101335Z AUTO 25004KT 10SM CLR 00/M05 A3041 RMK AO2 T00041051
KMKN 101315Z AUTO 29003KT 10SM CLR 05/M05 A3042 RMK AO2 T00501050
KMKN 101255Z AUTO 24004KT 10SM CLR 05/M05 A3040 RMK AO2 T00491051
KMKN 101235Z AUTO 25004KT 10SM CLR 05/M05 A3040 RMK AO2 T00481050
KMKN 101215Z AUTO 00000KT 10SM CLR 02/M05 A3040 RMK AO2 T00241049
KMKN 101155Z AUTO 26006KT 10SM CLR 06/M05 A3039 RMK AO2 T00601048 10090 20026
KMKN 101135Z AUTO 24006KT 10SM CLR 06/M05 A3039 RMK AO2 T00621046
KMKN 101115Z AUTO 22006KT 10SM CLR 06/M05 A3038 RMK AO2 T00591046
KMKN 101055Z AUTO 23007KT 10SM CLR 06/M04 A3038 RMK AO2 T00581045
KMKN 101035Z AUTO 23006KT 10SM CLR 05/M04 A3039 RMK AO2 T00521041
KMKN 101015Z AUTO 25004KT 10SM CLR 05/M04 A3039 RMK AO2 T00451045
KMKN 100955Z AUTO 22003KT 10SM CLR 04/M05 A3039 RMK AO2 T00441047
KMKN 100935Z AUTO 00000KT 10SM CLR 03/M05 A3039 RMK AO2 T00271050
KMKN 100915Z AUTO 00000KT 10SM CLR 04/M05 A3039 RMK AO2 T00351050
KMKN 100855Z AUTO 00000KT 10SM CLR 04/M05 A3038 RMK AO2 T00381050
KMKN 100835Z AUTO 00000KT 10SM CLR 04/M05 A3038 RMK AO2 T00401050
KMKN 100815Z AUTO 00000KT 10SM CLR 08/M05 A3038 RMK AO2 T00781051
KMKN 100755Z AUTO 21003KT 10SM CLR 07/M05 A3039 RMK AO2 T00701051
KMKN 100735Z AUTO 00000KT 10SM CLR 05/M05 A3039 RMK AO2 T00471048
KMKN 100715Z AUTO 00000KT 10SM CLR 04/M05 A3038 RMK AO2 T00431050
KMKN 100655Z AUTO 00000KT 10SM CLR 08/M05 A3039 RMK AO2 T00761052
KMKN 100635Z AUTO 00000KT 10SM CLR 09/M05 A3039 RMK AO2 T00871050
KMKN 100615Z AUTO 00000KT 10SM CLR 09/M05 A3039 RMK AO2 T00901050
KMKN 100555Z AUTO 00000KT 10SM CLR 09/M05 A3039 RMK AO2 T00911050 10114 20083 401630033
KMKN 100535Z AUTO 00000KT 10SM CLR 09/M05 A3038 RMK AO2 T00911050
KMKN 100515Z AUTO 00000KT 10SM CLR 09/M05 A3038 RMK AO2 T00871051
KMKN 100455Z AUTO 22003KT 10SM CLR 09/M05 A3038 RMK AO2 T00861051
KMKN 100435Z AUTO 25003KT 10SM CLR 09/M05 A3038 RMK AO2 T00851051
KMKN 100415Z AUTO 00000KT 10SM CLR 09/M05 A3038 RMK AO2 T00861051
KMKN 100355Z AUTO 27003KT 10SM CLR 09/M05 A3038 RMK AO2 T00921051
KMKN 100335Z AUTO 00000KT 10SM CLR 09/M05 A3037 RMK AO2 T00861050
KMKN 100315Z AUTO 27003KT 10SM CLR 09/M05 A3037 RMK AO2 T00891052
KMKN 100255Z AUTO 28003KT 10SM CLR 09/M05 A3036 RMK AO2 T00881052
KMKN 100235Z AUTO 31003KT 10SM CLR 09/M05 A3035 RMK AO2 T00901052
KMKN 100215Z AUTO 31003KT 10SM CLR 09/M05 A3035 RMK AO2 T00851051
KMKN 100155Z AUTO 32003KT 10SM CLR 09/M05 A3035 RMK AO2 T00901051
KMKN 100135Z AUTO 33005KT 10SM CLR 09/M05 A3034 RMK AO2 T00901051
KMKN 100115Z AUTO 33005KT 10SM CLR 10/M05 A3033 RMK AO2 T00951051